createdAt,value
2018-09-24T00:00:59.655Z,1.97
2018-09-24T00:03:27.659Z,2.90
2018-09-24T00:05:55.677Z,2.30
2018-09-24T00:08:23.637Z,2.40
2018-09-24T00:10:51.616Z,2.30
2018-09-24T00:13:19.605Z,2.63
2018-09-24T00:15:47.710Z,2.60
2018-09-24T00:18:15.700Z,2.67
2018-09-24T00:20:43.833Z,2.47
2018-09-24T00:23:11.880Z,2.67
2018-09-24T00:25:39.905Z,2.13
2018-09-24T00:28:08.178Z,2.23
2018-09-24T00:30:36.558Z,3.30
2018-09-24T00:33:04.565Z,2.73
2018-09-24T00:35:32.769Z,2.53
2018-09-24T00:38:00.700Z,2.20
2018-09-24T00:40:28.753Z,2.43
2018-09-24T00:42:56.714Z,2.33
2018-09-24T00:45:24.651Z,2.17
2018-09-24T00:47:52.600Z,1.70
2018-09-24T00:50:20.510Z,2.27
2018-09-24T00:52:48.609Z,2.37
2018-09-24T00:55:16.753Z,1.97
2018-09-24T00:57:44.778Z,2.63
2018-09-24T01:00:12.760Z,2.03
2018-09-24T01:02:40.710Z,1.90
2018-09-24T01:05:08.689Z,1.80
2018-09-24T01:07:36.665Z,2.57
2018-09-24T01:10:04.710Z,2.70
2018-09-24T01:12:32.732Z,2.07
2018-09-24T01:15:00.740Z,1.90
2018-09-24T01:17:28.770Z,2.50
2018-09-24T01:19:56.823Z,1.90
2018-09-24T01:22:24.750Z,2.30
2018-09-24T01:24:52.755Z,2.30
2018-09-24T01:27:20.805Z,2.30
2018-09-24T01:29:48.715Z,2.53
2018-09-24T01:32:16.604Z,1.63
2018-09-24T01:34:44.504Z,2.40
2018-09-24T01:37:12.518Z,2.50
2018-09-24T01:39:40.465Z,2.00
2018-09-24T01:42:08.445Z,2.00
2018-09-24T01:44:36.381Z,2.00
2018-09-24T01:47:04.371Z,2.20
2018-09-24T01:49:32.629Z,2.43
2018-09-24T01:52:00.765Z,2.00
2018-09-24T01:54:29.280Z,2.03
2018-09-24T01:56:57.288Z,2.17
2018-09-24T01:59:25.363Z,2.37
2018-09-24T02:01:53.396Z,2.33
2018-09-24T02:04:21.330Z,1.93
2018-09-24T02:06:49.580Z,2.10
2018-09-24T02:09:17.593Z,2.20
2018-09-24T02:11:45.700Z,2.20
2018-09-24T02:14:13.645Z,2.20
2018-09-24T02:16:41.650Z,2.17
2018-09-24T02:19:09.935Z,1.90
2018-09-24T02:21:37.990Z,1.73
2018-09-24T02:24:06.611Z,1.73
2018-09-24T02:26:34.719Z,2.40
2018-09-24T02:29:02.644Z,3.20
2018-09-24T02:31:37.025Z,2.83
2018-09-24T02:34:05.208Z,1.73
2018-09-24T02:36:33.223Z,2.40
2018-09-24T02:39:01.493Z,1.20
2018-09-24T02:41:29.467Z,1.77
2018-09-24T02:43:57.510Z,2.20
2018-09-24T02:46:25.432Z,1.97
2018-09-24T02:48:53.533Z,1.83
2018-09-24T02:51:21.618Z,1.87
2018-09-24T02:53:49.698Z,2.47
2018-09-24T02:56:17.734Z,2.17
2018-09-24T02:58:45.650Z,1.63
2018-09-24T03:01:13.658Z,2.20
2018-09-24T03:03:41.590Z,1.77
2018-09-24T03:06:09.589Z,2.20
2018-09-24T03:08:40.214Z,1.97
2018-09-24T03:11:08.202Z,2.30
2018-09-24T03:13:36.150Z,1.70
2018-09-24T03:16:04.019Z,2.03
2018-09-24T03:18:32.110Z,1.70
2018-09-24T03:21:00.292Z,2.00
2018-09-24T03:23:28.337Z,1.77
2018-09-24T03:25:56.427Z,2.33
2018-09-24T03:28:24.430Z,1.90
2018-09-24T03:30:52.355Z,2.57
2018-09-24T03:33:20.307Z,1.80
2018-09-24T03:35:48.268Z,2.27
2018-09-24T03:38:16.229Z,1.87
2018-09-24T03:40:44.160Z,2.10
2018-09-24T03:43:12.088Z,2.00
2018-09-24T03:45:40.035Z,2.10
2018-09-24T03:48:07.997Z,2.07
2018-09-24T03:50:35.904Z,1.73
2018-09-24T03:53:03.917Z,2.00
2018-09-24T03:55:31.836Z,2.10
2018-09-24T03:57:59.796Z,1.80
2018-09-24T04:00:27.810Z,1.90
2018-09-24T04:02:55.887Z,2.20
2018-09-24T04:05:29.323Z,1.90
2018-09-24T04:08:02.786Z,2.80
2018-09-24T04:10:36.180Z,1.93
2018-09-24T04:13:09.835Z,2.20
2018-09-24T04:15:43.699Z,2.77
2018-09-24T04:18:17.306Z,3.27
2018-09-24T04:20:50.663Z,1.73
2018-09-24T04:23:24.159Z,2.10
2018-09-24T04:25:57.702Z,2.00
2018-09-24T04:28:31.173Z,2.90
2018-09-24T04:31:04.694Z,2.03
2018-09-24T04:33:38.201Z,3.10
2018-09-24T04:36:12.076Z,1.73
2018-09-24T04:38:45.607Z,1.93
2018-09-24T04:41:19.057Z,1.87
2018-09-24T04:43:52.884Z,2.10
2018-09-24T04:46:26.448Z,1.97
2018-09-24T04:48:59.965Z,2.03
2018-09-24T04:51:33.865Z,2.03
2018-09-24T04:54:07.571Z,1.97
2018-09-24T04:56:41.143Z,1.77
2018-09-24T04:59:14.972Z,2.27
2018-09-24T05:01:48.587Z,1.83
2018-09-24T05:04:22.288Z,2.20
2018-09-24T05:06:55.924Z,1.80
2018-09-24T05:09:29.960Z,1.87
2018-09-24T05:12:03.594Z,2.03
2018-09-24T05:14:37.280Z,2.23
2018-09-24T05:17:10.997Z,1.97
2018-09-24T05:19:44.830Z,2.50
2018-09-24T05:22:18.352Z,1.57
2018-09-24T05:24:51.939Z,2.27
2018-09-24T05:27:25.643Z,1.97
2018-09-24T05:29:59.262Z,1.43
2018-09-24T05:32:32.911Z,2.27
2018-09-24T05:35:06.465Z,2.40
2018-09-24T05:37:40.267Z,2.70
2018-09-24T05:40:14.012Z,2.10
2018-09-24T05:42:47.537Z,1.87
2018-09-24T05:45:21.153Z,2.10
2018-09-24T05:47:54.682Z,1.87
2018-09-24T05:50:28.378Z,1.90
2018-09-24T05:53:02.073Z,1.93
2018-09-24T05:55:35.683Z,2.13
2018-09-24T05:58:09.309Z,1.70
2018-09-24T06:00:42.860Z,1.40
2018-09-24T06:03:16.317Z,1.40
2018-09-24T06:05:50.138Z,1.90
2018-09-24T06:08:23.576Z,2.27
2018-09-24T06:10:57.214Z,1.57
2018-09-24T06:13:30.728Z,1.40
2018-09-24T06:16:04.426Z,1.43
2018-09-24T06:18:37.921Z,1.43
2018-09-24T06:21:11.888Z,1.53
2018-09-24T06:23:45.457Z,1.90
2018-09-24T06:26:19.019Z,1.37
2018-09-24T06:28:52.469Z,1.90
2018-09-24T06:31:25.961Z,1.70
2018-09-24T06:33:59.407Z,1.70
2018-09-24T06:36:33.249Z,1.60
2018-09-24T06:39:06.744Z,1.73
2018-09-24T06:41:40.420Z,2.20
2018-09-24T06:44:14.262Z,1.57
2018-09-24T06:46:47.773Z,2.00
2018-09-24T06:49:21.171Z,1.53
2018-09-24T06:51:54.652Z,1.13
2018-09-24T06:54:28.172Z,1.50
2018-09-24T06:57:01.732Z,2.40
2018-09-24T06:59:35.514Z,1.77
2018-09-24T07:02:09.353Z,1.40
2018-09-24T07:04:42.932Z,1.20
2018-09-24T07:07:16.583Z,1.60
2018-09-24T07:09:50.228Z,1.70
2018-09-24T07:12:23.921Z,1.77
2018-09-24T07:14:57.561Z,1.80
2018-09-24T07:17:31.102Z,1.70
2018-09-24T07:20:04.819Z,1.37
2018-09-24T07:22:38.582Z,1.90
2018-09-24T07:25:12.112Z,1.80
2018-09-24T07:27:45.742Z,1.70
2018-09-24T07:30:19.332Z,2.00
2018-09-24T07:32:52.951Z,1.93
2018-09-24T07:35:26.445Z,1.60
2018-09-24T07:38:00.258Z,1.50
2018-09-24T07:40:33.771Z,1.80
2018-09-24T07:43:07.400Z,1.50
2018-09-24T07:45:40.909Z,1.60
2018-09-24T07:48:15.341Z,1.50
2018-09-24T07:50:49.119Z,1.50
2018-09-24T07:53:22.752Z,2.13
2018-09-24T07:55:56.354Z,2.20
2018-09-24T07:58:30.169Z,1.90
2018-09-24T08:01:03.778Z,1.47
2018-09-24T08:03:37.466Z,1.60
2018-09-24T08:06:11.096Z,1.60
2018-09-24T08:08:44.740Z,1.37
2018-09-24T08:11:18.267Z,1.60
2018-09-24T08:13:51.899Z,1.53
2018-09-24T08:16:25.455Z,1.40
2018-09-24T08:18:59.148Z,1.50
2018-09-24T08:21:32.614Z,1.43
2018-09-24T08:24:06.272Z,1.73
2018-09-24T08:26:39.952Z,1.43
2018-09-24T08:29:13.732Z,1.80
2018-09-24T08:31:47.458Z,1.50
2018-09-24T08:34:21.127Z,1.60
2018-09-24T08:36:54.764Z,1.60
2018-09-24T08:39:28.282Z,1.20
2018-09-24T08:42:01.806Z,1.60
2018-09-24T08:44:35.650Z,1.57
2018-09-24T08:47:09.330Z,1.33
2018-09-24T08:49:42.847Z,1.30
2018-09-24T08:52:16.436Z,1.73
2018-09-24T08:54:50.302Z,1.50
2018-09-24T08:57:24.042Z,1.40
2018-09-24T08:59:57.703Z,1.50
2018-09-24T09:02:31.240Z,1.60
2018-09-24T09:05:04.897Z,1.20
2018-09-24T09:07:38.499Z,1.20
2018-09-24T09:10:12.112Z,2.23
2018-09-24T09:12:45.844Z,1.70
2018-09-24T09:15:19.478Z,1.63
2018-09-24T09:17:53.146Z,1.60
2018-09-24T09:20:26.801Z,1.63
2018-09-24T09:23:00.567Z,1.53
2018-09-24T09:25:34.001Z,1.27
2018-09-24T09:28:07.421Z,1.53
2018-09-24T09:30:40.883Z,1.60
2018-09-24T09:33:14.624Z,1.20
2018-09-24T09:35:48.364Z,1.00
2018-09-24T09:38:21.841Z,1.60
2018-09-24T09:40:55.432Z,1.73
2018-09-24T09:43:29.060Z,1.00
2018-09-24T09:46:02.709Z,1.20
2018-09-24T09:48:36.164Z,1.30
2018-09-24T09:51:09.828Z,1.43
2018-09-24T09:53:43.509Z,1.30
2018-09-24T09:56:17.316Z,1.23
2018-09-24T09:58:50.846Z,1.30
2018-09-24T10:01:24.574Z,1.20
2018-09-24T10:03:58.246Z,1.10
2018-09-24T10:06:31.934Z,1.13
2018-09-24T10:09:05.836Z,1.10
2018-09-24T10:11:40.046Z,1.27
2018-09-24T10:14:13.675Z,1.27
2018-09-24T10:16:47.544Z,1.20
2018-09-24T10:19:21.156Z,1.10
2018-09-24T10:21:54.843Z,1.00
2018-09-24T10:24:28.368Z,0.80
2018-09-24T10:27:02.004Z,1.00
2018-09-24T10:29:35.607Z,0.87
2018-09-24T10:32:09.347Z,0.93
2018-09-24T10:34:42.935Z,1.00
2018-09-24T10:37:16.607Z,0.80
2018-09-24T10:39:50.338Z,0.73
2018-09-24T10:42:23.915Z,1.00
2018-09-24T10:44:57.596Z,1.10
2018-09-24T10:47:31.067Z,1.10
2018-09-24T10:50:04.629Z,0.90
2018-09-24T10:52:38.359Z,1.00
2018-09-24T10:55:11.975Z,0.80
2018-09-24T10:57:45.935Z,1.00
2018-09-24T11:00:19.622Z,0.73
2018-09-24T11:02:53.127Z,1.20
2018-09-24T11:05:26.827Z,0.67
2018-09-24T11:08:00.528Z,0.73
2018-09-24T11:10:34.127Z,0.70
2018-09-24T11:13:07.787Z,0.63
2018-09-24T11:15:41.630Z,0.80
2018-09-24T11:18:15.195Z,0.80
2018-09-24T11:20:48.906Z,0.60
2018-09-24T11:23:22.526Z,0.70
2018-09-24T11:25:56.227Z,0.53
2018-09-24T11:28:29.827Z,0.60
2018-09-24T11:31:03.420Z,0.70
2018-09-24T11:33:37.047Z,0.60
2018-09-24T11:36:12.055Z,0.90
2018-09-24T11:38:45.667Z,0.60
2018-09-24T11:41:19.355Z,0.83
2018-09-24T11:43:52.876Z,0.70
2018-09-24T11:46:27.390Z,0.97
2018-09-24T11:49:01.096Z,1.20
2018-09-24T11:51:34.766Z,0.73
2018-09-24T11:54:08.326Z,1.20
2018-09-24T11:56:42.090Z,0.93
2018-09-24T11:59:16.566Z,0.30
2018-09-24T12:01:50.134Z,0.67
2018-09-24T12:04:23.686Z,0.70
2018-09-24T12:06:57.275Z,0.90
2018-09-24T12:09:30.860Z,0.73
2018-09-24T12:12:04.515Z,1.40
2018-09-24T12:14:38.116Z,0.60
2018-09-24T12:17:11.852Z,0.80
2018-09-24T12:19:45.515Z,0.80
2018-09-24T12:22:19.055Z,1.10
2018-09-24T12:24:52.775Z,0.97
2018-09-24T12:27:26.436Z,1.07
2018-09-24T12:29:59.987Z,1.20
2018-09-24T12:32:33.675Z,1.63
2018-09-24T12:35:07.275Z,0.60
2018-09-24T12:37:40.955Z,0.50
2018-09-24T12:40:14.716Z,0.50
2018-09-24T12:42:48.371Z,0.50
2018-09-24T12:45:22.124Z,0.60
2018-09-24T12:47:55.760Z,0.70
2018-09-24T12:50:29.523Z,0.70
2018-09-24T12:53:03.018Z,0.80
2018-09-24T12:55:43.678Z,0.90
2018-09-24T12:58:20.720Z,0.80
2018-09-24T13:00:58.842Z,0.70
2018-09-24T13:03:33.346Z,0.63
2018-09-24T13:06:07.807Z,0.70
2018-09-24T13:08:41.467Z,0.70
2018-09-24T13:11:15.575Z,0.87
2018-09-24T13:13:49.508Z,0.90
2018-09-24T13:16:23.175Z,0.70
2018-09-24T13:18:56.855Z,0.90
2018-09-24T13:21:30.489Z,1.00
2018-09-24T13:24:04.167Z,1.17
2018-09-24T13:26:44.434Z,0.80
2018-09-24T13:29:18.143Z,1.10
2018-09-24T13:31:51.840Z,0.80
2018-09-24T13:34:25.620Z,0.70
2018-09-24T13:37:02.857Z,1.10
2018-09-24T13:39:36.552Z,1.00
2018-09-24T13:42:10.228Z,0.90
2018-09-24T13:44:44.028Z,0.93
2018-09-24T13:47:17.776Z,1.07
2018-09-24T13:49:52.737Z,1.37
2018-09-24T13:52:31.638Z,1.07
2018-09-24T13:55:06.311Z,1.00
2018-09-24T13:57:39.862Z,0.63
2018-09-24T14:00:13.884Z,1.17
2018-09-24T14:02:47.383Z,0.87
2018-09-24T14:05:21.089Z,1.13
2018-09-24T14:07:54.534Z,1.00
2018-09-24T14:10:28.924Z,0.70
2018-09-24T14:13:02.611Z,0.60
2018-09-24T14:15:36.291Z,0.40
2018-09-24T14:18:11.463Z,0.53
2018-09-24T14:20:46.222Z,0.90
2018-09-24T14:23:19.866Z,1.00
2018-09-24T14:25:53.559Z,0.80
2018-09-24T14:28:27.249Z,0.60
2018-09-24T14:31:01.113Z,1.13
2018-09-24T14:33:34.613Z,1.00
2018-09-24T14:36:08.098Z,0.83
2018-09-24T14:38:41.593Z,0.97
2018-09-24T14:41:15.111Z,0.93
2018-09-24T14:43:48.709Z,1.20
2018-09-24T14:46:22.410Z,1.00
2018-09-24T14:48:56.038Z,0.70
2018-09-24T14:51:29.880Z,1.00
2018-09-24T14:54:03.400Z,0.93
2018-09-24T14:56:37.123Z,1.00
2018-09-24T14:59:10.617Z,0.60
2018-09-24T15:01:44.445Z,0.83
2018-09-24T15:04:18.086Z,0.80
2018-09-24T15:06:51.548Z,0.80
2018-09-24T15:09:25.268Z,0.40
2018-09-24T15:11:59.018Z,1.00
2018-09-24T15:14:32.438Z,0.50
2018-09-24T15:17:06.099Z,0.50
2018-09-24T15:19:40.524Z,1.30
2018-09-24T15:22:14.039Z,0.67
2018-09-24T15:24:47.671Z,1.53
2018-09-24T15:27:21.290Z,0.90
2018-09-24T15:29:55.038Z,0.70
2018-09-24T15:32:33.391Z,0.97
2018-09-24T15:35:08.052Z,0.83
2018-09-24T15:37:44.470Z,0.90
2018-09-24T15:40:20.387Z,1.00
2018-09-24T15:42:56.438Z,0.77
2018-09-24T15:45:29.938Z,1.00
2018-09-24T15:48:03.536Z,0.60
2018-09-24T15:50:37.276Z,1.03
2018-09-24T15:53:11.257Z,1.00
2018-09-24T15:55:44.739Z,1.30
2018-09-24T15:58:18.592Z,1.27
2018-09-24T16:00:52.067Z,0.80
2018-09-24T16:03:25.640Z,1.13
2018-09-24T16:05:59.106Z,1.10
2018-09-24T16:08:32.761Z,0.90
2018-09-24T16:11:07.023Z,1.20
2018-09-24T16:13:40.418Z,0.90
2018-09-24T16:16:13.922Z,0.60
2018-09-24T16:18:47.711Z,0.60
2018-09-24T16:21:21.756Z,0.70
2018-09-24T16:23:55.424Z,1.00
2018-09-24T16:26:30.689Z,1.20
2018-09-24T16:29:04.167Z,1.10
2018-09-24T16:31:37.924Z,1.17
2018-09-24T16:34:11.776Z,1.60
2018-09-24T16:36:45.255Z,1.00
2018-09-24T16:39:18.838Z,3.80
2018-09-24T16:41:52.504Z,4.10
2018-09-24T16:44:25.955Z,4.60
2018-09-24T16:46:59.656Z,1.67
2018-09-24T16:49:33.600Z,1.50
2018-09-24T16:52:07.120Z,2.17
2018-09-24T16:54:40.618Z,3.60
2018-09-24T16:57:14.226Z,3.50
2018-09-24T16:59:48.075Z,2.70
2018-09-24T17:02:21.918Z,1.33
2018-09-24T17:04:55.673Z,1.07
2018-09-24T17:07:29.575Z,1.27
2018-09-24T17:10:03.310Z,1.73
2018-09-24T17:12:37.089Z,1.30
2018-09-24T17:15:12.021Z,1.57
2018-09-24T17:17:45.536Z,1.43
2018-09-24T17:20:18.979Z,1.30
2018-09-24T17:22:52.505Z,1.53
2018-09-24T17:25:26.075Z,1.30
2018-09-24T17:27:59.585Z,1.30
2018-09-24T17:30:34.081Z,1.17
2018-09-24T17:33:07.563Z,1.50
2018-09-24T17:35:41.041Z,1.33
2018-09-24T17:38:14.435Z,1.43
2018-09-24T17:40:47.918Z,1.17
2018-09-24T17:43:21.462Z,1.30
2018-09-24T17:45:55.796Z,1.30
2018-09-24T17:48:29.297Z,1.13
2018-09-24T17:51:03.143Z,1.40
2018-09-24T17:53:36.700Z,1.40
2018-09-24T17:56:10.294Z,1.23
2018-09-24T17:58:43.686Z,1.30
2018-09-24T18:01:17.182Z,0.97
2018-09-24T18:03:50.705Z,1.53
2018-09-24T18:06:24.402Z,1.40
2018-09-24T18:08:57.917Z,1.70
2018-09-24T18:11:31.724Z,1.53
2018-09-24T18:14:05.325Z,1.63
2018-09-24T18:16:38.756Z,2.33
2018-09-24T18:19:12.444Z,1.50
2018-09-24T18:21:46.088Z,2.13
2018-09-24T18:24:19.505Z,2.00
2018-09-24T18:26:53.142Z,2.00
2018-09-24T18:29:26.605Z,2.13
2018-09-24T18:31:59.947Z,2.30
2018-09-24T18:34:33.622Z,2.17
2018-09-24T18:37:07.550Z,2.60
2018-09-24T18:39:40.953Z,2.30
2018-09-24T18:42:14.438Z,2.73
2018-09-24T18:44:48.033Z,2.73
2018-09-24T18:47:21.663Z,3.70
2018-09-24T18:49:55.212Z,2.83
2018-09-24T18:52:28.623Z,2.70
2018-09-24T18:55:02.010Z,2.10
2018-09-24T18:57:35.413Z,2.10
2018-09-24T19:00:08.920Z,2.10
2018-09-24T19:02:42.442Z,2.10
2018-09-24T19:05:15.856Z,1.90
2018-09-24T19:07:49.406Z,1.60
2018-09-24T19:10:23.045Z,1.87
2018-09-24T19:12:56.648Z,1.47
2018-09-24T19:15:30.110Z,1.70
2018-09-24T19:18:03.648Z,1.87
2018-09-24T19:20:37.100Z,1.80
2018-09-24T19:23:10.652Z,2.33
2018-09-24T19:25:44.140Z,1.80
2018-09-24T19:28:17.595Z,1.87
2018-09-24T19:30:51.090Z,1.40
2018-09-24T19:33:24.548Z,1.70
2018-09-24T19:36:05.046Z,2.00
2018-09-24T19:38:38.761Z,1.00
2018-09-24T19:41:12.421Z,2.10
2018-09-24T19:43:45.934Z,1.33
2018-09-24T19:46:19.433Z,1.20
2018-09-24T19:48:52.992Z,1.63
2018-09-24T19:51:26.352Z,1.53
2018-09-24T19:53:59.776Z,1.90
2018-09-24T19:56:33.580Z,1.20
2018-09-24T19:59:07.375Z,1.07
2018-09-24T20:01:40.822Z,1.87
2018-09-24T20:04:14.310Z,2.00
2018-09-24T20:06:47.771Z,2.07
2018-09-24T20:09:21.313Z,1.50
2018-09-24T20:11:54.840Z,1.97
2018-09-24T20:14:28.510Z,1.63
2018-09-24T20:17:02.171Z,1.10
2018-09-24T20:19:35.673Z,1.33
2018-09-24T20:22:10.388Z,1.50
2018-09-24T20:24:43.931Z,1.20
2018-09-24T20:27:17.393Z,1.50
2018-09-24T20:29:50.935Z,1.50
2018-09-24T20:32:24.436Z,1.20
2018-09-24T20:34:57.916Z,1.50
2018-09-24T20:37:31.485Z,1.17
2018-09-24T20:40:05.147Z,1.47
2018-09-24T20:42:38.678Z,1.50
2018-09-24T20:45:12.633Z,1.40
2018-09-24T20:47:46.166Z,1.60
2018-09-24T20:50:19.730Z,1.50
2018-09-24T20:52:53.262Z,1.30
2018-09-24T20:55:26.678Z,1.37
2018-09-24T20:58:00.156Z,1.20
2018-09-24T21:00:33.505Z,1.60
2018-09-24T21:03:07.221Z,1.30
2018-09-24T21:05:40.817Z,1.93
2018-09-24T21:08:14.401Z,1.60
2018-09-24T21:10:47.910Z,0.97
2018-09-24T21:13:21.340Z,1.73
2018-09-24T21:15:54.760Z,1.40
2018-09-24T21:18:28.273Z,1.53
2018-09-24T21:21:01.681Z,1.40
2018-09-24T21:23:35.450Z,1.40
2018-09-24T21:26:08.879Z,1.50
2018-09-24T21:28:42.432Z,1.30
2018-09-24T21:31:15.890Z,1.80
2018-09-24T21:33:49.475Z,1.40
2018-09-24T21:36:23.017Z,1.67
2018-09-24T21:38:56.802Z,1.57
2018-09-24T21:41:30.300Z,1.60
2018-09-24T21:44:03.988Z,1.30
2018-09-24T21:46:37.614Z,1.83
2018-09-24T21:49:10.960Z,1.80
2018-09-24T21:51:44.340Z,1.43
2018-09-24T21:54:17.849Z,1.70
2018-09-24T21:56:51.453Z,2.00
2018-09-24T21:59:24.901Z,2.10
2018-09-24T22:01:58.486Z,1.87
2018-09-24T22:04:31.926Z,1.70
2018-09-24T22:07:05.242Z,1.50
2018-09-24T22:09:40.266Z,1.70
2018-09-24T22:12:13.805Z,1.83
2018-09-24T22:14:47.465Z,1.40
2018-09-24T22:17:21.045Z,1.67
2018-09-24T22:19:54.613Z,1.50
2018-09-24T22:22:28.120Z,1.50
2018-09-24T22:25:01.850Z,1.87
2018-09-24T22:27:35.433Z,1.50
2018-09-24T22:30:08.835Z,1.50
2018-09-24T22:32:42.296Z,1.50
2018-09-24T22:35:15.780Z,1.40
2018-09-24T22:37:49.188Z,1.23
2018-09-24T22:40:22.596Z,1.27
2018-09-24T22:42:56.103Z,1.40
2018-09-24T22:45:29.556Z,1.67
2018-09-24T22:48:03.059Z,1.73
2018-09-24T22:50:37.068Z,1.33
2018-09-24T22:53:10.586Z,1.77
2018-09-24T22:55:44.240Z,1.97
2018-09-24T22:58:17.700Z,1.43
2018-09-24T23:00:51.188Z,2.10
2018-09-24T23:03:24.436Z,1.20
2018-09-24T23:05:57.901Z,1.40
2018-09-24T23:08:31.361Z,1.37
2018-09-24T23:11:04.954Z,1.20
2018-09-24T23:13:38.464Z,1.27
2018-09-24T23:16:11.929Z,1.30
2018-09-24T23:18:45.333Z,1.40
2018-09-24T23:21:18.739Z,1.90
2018-09-24T23:23:52.293Z,1.50
2018-09-24T23:26:25.697Z,1.47
2018-09-24T23:28:59.101Z,1.60
2018-09-24T23:31:32.539Z,1.60
2018-09-24T23:34:05.924Z,1.80
2018-09-24T23:36:39.425Z,1.57
2018-09-24T23:39:13.659Z,1.63
2018-09-24T23:41:47.447Z,2.60
2018-09-24T23:44:20.790Z,1.30
2018-09-24T23:46:54.306Z,1.77
2018-09-24T23:49:27.838Z,2.10
2018-09-24T23:52:01.498Z,1.43
2018-09-24T23:54:34.920Z,1.40
2018-09-24T23:57:08.398Z,1.00
2018-09-24T23:59:41.733Z,1.47
